Time;durP1;ratioP1;P1;durP2;ratioP2;P2;SDS_P1;SDS_P2;PMS_P1;PMS_P2;Temp;Humidity;BMP_temperature;BMP_pressure;BME280_temperature;BME280_humidity;BME280_pressure;Samples;Min_cycle;Max_cycle;Signal;HPM_P1;HPM_P2
2022/03/19 00:01:57;;;;;;;8.77;6.33;;;;;;;0.07;38.38;96893.34;4927806;28;20212;-63
2022/03/19 00:04:22;;;;;;;9.53;5.70;;;;;;;0.19;38.86;96888.69;4932590;28;20208;-65
2022/03/19 00:06:48;;;;;;;16.80;11.70;;;;;;;0.25;39.40;96887.66;4942310;28;20224;-64
2022/03/19 00:09:14;;;;;;;18.47;13.90;;;;;;;0.20;40.33;96889.53;4930517;29;20228;-64
2022/03/19 00:11:40;;;;;;;25.57;15.80;;;;;;;0.20;40.65;96890.38;4928354;28;20235;-63
2022/03/19 00:14:06;;;;;;;27.80;18.60;;;;;;;0.14;40.97;96887.97;4919742;28;20243;-64
2022/03/19 00:16:32;;;;;;;29.80;20.80;;;;;;;0.18;41.38;96899.06;4930195;29;20211;-64
2022/03/19 00:18:57;;;;;;;31.43;20.33;;;;;;;0.33;41.39;96893.47;4926667;29;20228;-63
2022/03/19 00:21:23;;;;;;;30.03;20.37;;;;;;;0.34;41.33;96889.97;4929421;29;20228;-64
2022/03/19 00:23:48;;;;;;;32.00;18.97;;;;;;;0.13;42.31;96885.41;4946721;28;20221;-64
2022/03/19 00:26:15;;;;;;;28.43;17.90;;;;;;;0.15;42.12;96878.47;4935718;28;20224;-65
2022/03/19 00:28:41;;;;;;;24.07;16.50;;;;;;;0.29;42.33;96886.69;4928589;29;20483;-64
2022/03/19 00:31:07;;;;;;;30.37;17.50;;;;;;;0.28;42.20;96885.00;4928516;28;20231;-64
2022/03/19 00:33:33;;;;;;;24.43;18.70;;;;;;;0.04;42.79;96891.69;4927644;29;20324;-65
2022/03/19 00:35:59;;;;;;;33.87;21.70;;;;;;;-0.04;42.86;96889.31;4946368;28;20308;-65
2022/03/19 00:38:24;;;;;;;31.27;22.93;;;;;;;0.01;42.47;96881.44;4934678;28;20676;-64
2022/03/19 00:40:51;;;;;;;37.43;24.33;;;;;;;-0.02;43.18;96887.53;4940911;28;20205;-66
2022/03/19 00:43:19;;;;;;;30.63;22.07;;;;;;;-0.02;43.13;96887.53;4943756;28;20232;-64
2022/03/19 00:45:46;;;;;;;34.03;23.53;;;;;;;-0.14;43.44;96882.69;4928279;29;20235;-64
2022/03/19 00:48:11;;;;;;;31.77;23.00;;;;;;;-0.12;43.29;96891.25;4925262;29;20226;-65
2022/03/19 00:50:36;;;;;;;34.93;23.30;;;;;;;-0.19;43.39;96881.13;4926661;29;20312;-64
2022/03/19 00:53:02;;;;;;;26.83;20.90;;;;;;;-0.28;44.15;96889.97;4943218;28;20236;-64
2022/03/19 00:55:27;;;;;;;25.27;18.00;;;;;;;-0.35;45.17;96893.59;4927195;29;20244;-64
2022/03/19 00:57:53;;;;;;;31.73;20.13;;;;;;;-0.33;45.25;96897.84;4931198;29;20225;-64
2022/03/19 01:00:25;;;;;;;31.13;20.50;;;;;;;-0.24;45.25;96891.59;4931760;29;20225;-64
2022/03/19 01:02:51;;;;;;;32.73;21.17;;;;;;;-0.30;45.44;96899.50;4935019;28;20320;-64
2022/03/19 01:05:17;;;;;;;30.20;19.77;;;;;;;-0.30;45.00;96897.75;4929683;29;20282;-64
2022/03/19 01:07:48;;;;;;;27.50;18.90;;;;;;;-0.28;45.15;96895.97;4946648;28;20205;-64
2022/03/19 01:10:16;;;;;;;27.60;18.70;;;;;;;-0.30;45.17;96889.16;4929814;29;20236;-64
2022/03/19 01:12:42;;;;;;;28.50;19.73;;;;;;;-0.42;45.52;96892.06;4929319;28;20256;-63
2022/03/19 01:15:09;;;;;;;28.03;19.80;;;;;;;-0.49;46.28;96892.19;4930206;29;20233;-64
2022/03/19 01:17:35;;;;;;;27.73;20.47;;;;;;;-0.50;46.21;96889.69;4930160;28;20224;-64
2022/03/19 01:20:02;;;;;;;28.93;18.67;;;;;;;-0.54;46.04;96888.88;4930450;28;20217;-66
2022/03/19 01:22:28;;;;;;;26.77;18.37;;;;;;;-0.46;46.53;96886.09;4930038;29;20244;-65
2022/03/19 01:24:54;;;;;;;30.10;18.70;;;;;;;-0.38;46.19;96888.50;4931561;28;20216;-66
2022/03/19 01:27:20;;;;;;;23.03;17.17;;;;;;;-0.41;46.32;96883.41;4930254;29;20237;-66
2022/03/19 01:29:46;;;;;;;30.80;16.53;;;;;;;-0.63;46.87;96885.69;4930030;29;20232;-65
2022/03/19 01:32:12;;;;;;;23.07;14.97;;;;;;;-0.71;46.64;96883.31;4929577;29;20222;-64
2022/03/19 01:34:37;;;;;;;26.20;15.67;;;;;;;-0.69;47.14;96878.94;4901129;29;20222;-64
2022/03/19 01:37:04;;;;;;;30.20;15.50;;;;;;;-0.65;47.23;96874.53;4908940;29;20232;-64
2022/03/19 01:39:29;;;;;;;23.67;15.53;;;;;;;-0.97;48.34;96869.25;4917046;29;20233;-63
2022/03/19 01:41:54;;;;;;;28.90;19.17;;;;;;;-0.82;48.23;96870.66;4926065;29;20230;-66
2022/03/19 01:44:21;;;;;;;24.93;17.13;;;;;;;-0.75;47.24;96873.91;4911026;29;20300;-64
2022/03/19 01:46:58;;;;;;;22.23;15.53;;;;;;;-1.02;47.21;96871.09;4946818;28;20280;-64
2022/03/19 01:49:25;;;;;;;21.77;14.63;;;;;;;-1.02;46.96;96867.69;4898380;29;20233;-64
2022/03/19 01:51:51;;;;;;;19.40;13.37;;;;;;;-0.84;46.41;96863.81;4897061;29;20393;-64
2022/03/19 01:54:22;;;;;;;19.80;13.93;;;;;;;-0.94;45.95;96868.34;4889441;29;20234;-65
2022/03/19 01:56:48;;;;;;;19.93;13.83;;;;;;;-0.94;46.56;96865.75;4901039;29;20543;-66
2022/03/19 01:59:15;;;;;;;29.87;18.23;;;;;;;-0.93;46.95;96860.56;4915654;29;20237;-66
2022/03/19 02:01:42;;;;;;;32.80;19.83;;;;;;;-1.15;47.60;96860.25;4912664;29;20222;-63
2022/03/19 02:04:08;;;;;;;32.47;19.70;;;;;;;-1.03;47.91;96866.00;4928926;28;20267;-64
2022/03/19 02:06:36;;;;;;;29.30;19.63;;;;;;;-1.06;47.76;96855.75;4898538;29;20258;-64
2022/03/19 02:09:03;;;;;;;25.97;18.00;;;;;;;-1.21;47.81;96849.19;4908713;29;20325;-64
2022/03/19 02:11:29;;;;;;;29.17;18.83;;;;;;;-1.09;47.39;96853.25;4897468;29;20233;-64
2022/03/19 02:13:55;;;;;;;24.40;17.30;;;;;;;-1.17;47.96;96853.41;4905856;29;20207;-64
2022/03/19 02:16:20;;;;;;;24.50;17.63;;;;;;;-1.13;48.16;96862.75;4895769;29;20436;-66
2022/03/19 02:18:46;;;;;;;22.63;16.17;;;;;;;-1.15;47.67;96859.38;4907816;29;20288;-64
2022/03/19 02:21:12;;;;;;;22.37;16.17;;;;;;;-1.07;46.68;96852.28;4942815;28;20233;-65
2022/03/19 02:26:21;;;;;;;29.90;18.37;;;;;;;-1.24;47.92;96850.09;4930532;28;20316;-64
2022/03/19 02:28:47;;;;;;;26.63;18.40;;;;;;;-1.24;47.67;96857.00;4918792;29;20210;-65
2022/03/19 02:31:12;;;;;;;23.70;17.13;;;;;;;-1.17;47.49;96854.25;4906458;29;20242;-64
2022/03/19 02:33:38;;;;;;;24.77;15.93;;;;;;;-1.27;47.84;96849.34;4889144;29;20281;-64
2022/03/19 02:36:03;;;;;;;21.47;16.23;;;;;;;-1.17;47.85;96858.56;4890914;29;20222;-64
2022/03/19 02:38:29;;;;;;;23.30;17.03;;;;;;;-1.27;48.13;96854.50;4895573;29;20308;-64
2022/03/19 02:40:54;;;;;;;27.73;16.60;;;;;;;-1.35;48.39;96850.34;4908103;29;20261;-64
2022/03/19 02:43:20;;;;;;;25.50;16.30;;;;;;;-1.37;48.77;96862.44;4912572;29;20217;-66
2022/03/19 02:45:48;;;;;;;24.27;17.87;;;;;;;-1.25;48.07;96853.59;4912822;29;20230;-64
2022/03/19 02:48:13;;;;;;;27.13;16.43;;;;;;;-1.34;48.06;96862.38;4926667;29;20221;-64
2022/03/19 02:50:39;;;;;;;20.73;15.33;;;;;;;-1.41;48.19;96860.81;4909134;29;20229;-65
2022/03/19 02:53:10;;;;;;;24.57;16.00;;;;;;;-1.46;48.99;96870.38;4925665;29;20209;-64
2022/03/19 02:55:39;;;;;;;26.20;17.57;;;;;;;-1.37;48.73;96869.34;4926654;29;20205;-64
2022/03/19 02:58:06;;;;;;;25.53;16.73;;;;;;;-1.42;49.11;96869.44;4912517;29;20237;-65
2022/03/19 03:00:32;;;;;;;29.43;16.73;;;;;;;-1.62;49.18;96869.03;4914261;29;20233;-66
2022/03/19 03:02:58;;;;;;;24.20;16.53;;;;;;;-1.66;49.55;96868.22;4910934;29;20242;-65
2022/03/19 03:05:24;;;;;;;24.83;16.70;;;;;;;-1.63;49.21;96872.47;4913176;29;20233;-65
2022/03/19 03:07:49;;;;;;;26.90;18.23;;;;;;;-1.62;48.80;96871.59;4910888;29;20213;-65
2022/03/19 03:10:16;;;;;;;26.20;17.50;;;;;;;-1.54;48.21;96867.13;4910008;29;20254;-64
2022/03/19 03:12:42;;;;;;;28.00;19.17;;;;;;;-1.65;48.67;96869.09;4908202;29;20229;-64
2022/03/19 03:15:08;;;;;;;27.27;17.63;;;;;;;-1.62;48.62;96872.44;4910571;29;20256;-64
2022/03/19 03:17:34;;;;;;;26.47;18.43;;;;;;;-1.67;48.28;96866.53;4914871;29;20256;-64
2022/03/19 03:20:00;;;;;;;27.33;18.77;;;;;;;-1.75;48.43;96863.28;4913297;29;20296;-63
2022/03/19 03:22:26;;;;;;;26.87;17.83;;;;;;;-1.68;48.38;96871.75;4908606;29;20312;-64
2022/03/19 03:24:52;;;;;;;24.83;18.10;;;;;;;-1.69;48.48;96863.13;4906953;29;20324;-64
2022/03/19 03:27:17;;;;;;;25.37;18.47;;;;;;;-1.55;48.15;96870.59;4916149;29;20241;-64
2022/03/19 03:29:42;;;;;;;28.63;19.30;;;;;;;-1.46;48.29;96866.97;4927310;29;20236;-63
2022/03/19 03:32:11;;;;;;;33.73;19.53;;;;;;;-1.55;48.23;96865.44;4929328;28;20302;-64
2022/03/19 03:34:41;;;;;;;31.67;17.37;;;;;;;-1.57;48.75;96868.03;4930303;29;20231;-64
2022/03/19 03:37:07;;;;;;;29.13;18.00;;;;;;;-1.53;49.21;96870.56;4931195;29;20256;-64
2022/03/19 03:39:32;;;;;;;34.50;19.20;;;;;;;-1.54;49.04;96866.28;4927020;28;20324;-64
2022/03/19 03:41:58;;;;;;;31.57;19.00;;;;;;;-1.74;49.26;96874.44;4927334;28;20244;-65
2022/03/19 03:44:23;;;;;;;25.17;17.40;;;;;;;-1.77;49.27;96860.72;4927296;29;20229;-65
2022/03/19 03:46:49;;;;;;;24.90;17.87;;;;;;;-1.82;49.88;96862.56;4943762;29;20210;-64
2022/03/19 03:49:14;;;;;;;26.27;18.60;;;;;;;-1.80;49.33;96865.09;4927753;28;20228;-66
2022/03/19 03:51:40;;;;;;;30.70;17.40;;;;;;;-1.86;50.02;96866.06;4930204;29;20280;-65
2022/03/19 03:54:07;;;;;;;29.10;18.87;;;;;;;-1.90;50.41;96859.25;4931698;29;20228;-64
2022/03/19 03:56:33;;;;;;;27.33;18.30;;;;;;;-1.93;50.20;96874.78;4929245;29;20232;-65
2022/03/19 03:58:58;;;;;;;26.73;18.97;;;;;;;-1.90;50.20;96869.56;4925825;28;20212;-64
2022/03/19 04:01:24;;;;;;;30.47;18.83;;;;;;;-1.79;50.07;96874.53;4927272;29;20235;-64
2022/03/19 04:03:49;;;;;;;29.20;18.27;;;;;;;-1.79;49.45;96867.66;4927522;29;20229;-65
2022/03/19 04:06:15;;;;;;;28.37;17.37;;;;;;;-1.78;49.13;96868.50;4928444;28;20233;-66
2022/03/19 04:08:40;;;;;;;26.50;18.53;;;;;;;-1.89;49.39;96868.72;4947080;28;20232;-64
2022/03/19 04:11:06;;;;;;;25.77;17.50;;;;;;;-1.98;49.56;96871.47;4932438;29;20236;-63
2022/03/19 04:13:31;;;;;;;24.17;16.67;;;;;;;-2.05;50.19;96862.16;4944974;28;20213;-64
2022/03/19 04:15:57;;;;;;;24.13;17.27;;;;;;;-2.06;50.40;96863.03;4925724;28;20256;-63
2022/03/19 04:18:22;;;;;;;27.63;17.50;;;;;;;-2.04;49.95;96866.44;4927455;29;20240;-65
2022/03/19 04:20:48;;;;;;;24.63;16.67;;;;;;;-2.05;50.06;96875.91;4926874;29;20239;-64
2022/03/19 04:23:13;;;;;;;23.90;17.17;;;;;;;-1.98;49.85;96876.63;4927842;28;20334;-64
2022/03/19 04:25:40;;;;;;;26.27;16.87;;;;;;;-1.99;50.29;96869.78;4933388;29;20224;-64
2022/03/19 04:28:05;;;;;;;24.53;16.93;;;;;;;-2.16;50.47;96877.00;4926748;29;20341;-64
2022/03/19 04:30:32;;;;;;;23.33;16.63;;;;;;;-2.24;51.12;96870.25;4922719;28;20386;-66
2022/03/19 04:32:59;;;;;;;27.40;17.97;;;;;;;-2.00;50.77;96873.25;4922723;28;20225;-65
2022/03/19 04:38:13;;;;;;;26.77;17.43;;;;;;;-1.85;49.49;96875.50;4927230;28;20240;-65
2022/03/19 04:40:39;;;;;;;25.97;17.83;;;;;;;-1.79;49.18;96871.97;4925802;29;20208;-64
2022/03/19 04:43:06;;;;;;;24.67;16.87;;;;;;;-1.86;49.62;96873.81;4926807;29;20324;-66
2022/03/19 04:45:31;;;;;;;26.30;17.93;;;;;;;-2.00;50.02;96855.19;4927816;29;20246;-66
2022/03/19 04:47:57;;;;;;;25.73;17.30;;;;;;;-1.97;49.87;96875.75;4937426;28;20282;-65
2022/03/19 04:50:23;;;;;;;31.00;17.33;;;;;;;-2.03;50.32;96873.31;4926901;29;20317;-64
2022/03/19 04:52:49;;;;;;;25.40;17.10;;;;;;;-2.02;51.68;96875.00;4927805;29;20205;-64
2022/03/19 04:55:15;;;;;;;23.83;16.37;;;;;;;-2.02;51.14;96870.69;4927455;29;20230;-64
2022/03/19 04:57:40;;;;;;;23.07;16.33;;;;;;;-2.39;52.80;96872.25;4927194;29;20359;-63
2022/03/19 05:00:11;;;;;;;24.77;15.90;;;;;;;-2.29;52.59;96868.63;4928331;29;20245;-65
2022/03/19 05:02:36;;;;;;;21.90;15.53;;;;;;;-2.07;52.12;96875.06;4927906;29;20229;-63
2022/03/19 05:05:03;;;;;;;27.27;16.77;;;;;;;-2.18;52.46;96863.28;4926411;28;20205;-66
2022/03/19 05:07:28;;;;;;;25.60;16.17;;;;;;;-2.21;52.36;96874.50;4915868;29;20312;-65
2022/03/19 05:12:43;;;;;;;22.83;16.37;;;;;;;-2.01;52.23;96869.78;4929379;28;20232;-63
2022/03/19 05:15:12;;;;;;;27.13;16.37;;;;;;;-2.07;52.19;96871.66;4922864;29;20229;-64
2022/03/19 05:17:38;;;;;;;25.90;17.33;;;;;;;-1.98;52.45;96878.34;4940632;29;20229;-63
2022/03/19 05:20:04;;;;;;;24.03;17.37;;;;;;;-1.88;51.91;96878.13;4929811;28;20216;-63
2022/03/19 05:22:30;;;;;;;27.57;17.27;;;;;;;-1.90;51.90;96871.31;4925912;29;20213;-66
2022/03/19 05:25:00;;;;;;;24.70;16.67;;;;;;;-1.90;51.90;96882.47;4925113;29;20226;-64
2022/03/19 05:27:26;;;;;;;24.30;16.97;;;;;;;-1.78;52.00;96873.66;4936742;28;20257;-64
2022/03/19 05:29:52;;;;;;;23.23;15.53;;;;;;;-1.70;51.24;96882.06;4929409;29;20232;-64
2022/03/19 05:32:19;;;;;;;25.07;16.27;;;;;;;-1.58;49.83;96881.84;4945901;28;20227;-65
2022/03/19 05:34:45;;;;;;;23.00;17.13;;;;;;;-1.41;48.74;96886.63;4931288;29;20319;-64
2022/03/19 05:37:11;;;;;;;28.93;19.73;;;;;;;-1.47;48.43;96889.34;4929339;29;20280;-65
2022/03/19 05:39:36;;;;;;;36.67;25.27;;;;;;;-1.34;48.07;96895.94;4936025;28;20225;-64
2022/03/19 05:42:03;;;;;;;41.43;28.43;;;;;;;-1.43;47.76;96895.28;4930233;28;20239;-64
2022/03/19 05:44:29;;;;;;;39.47;27.53;;;;;;;-1.46;47.76;96891.03;4943684;28;20248;-64
2022/03/19 05:46:57;;;;;;;35.67;23.10;;;;;;;-1.51;47.07;96886.84;4931047;28;20247;-64
2022/03/19 05:49:22;;;;;;;29.67;19.50;;;;;;;-1.50;46.31;96899.72;4946438;28;20217;-64
2022/03/19 05:51:48;;;;;;;26.47;19.50;;;;;;;-1.45;46.47;96891.88;4930330;29;20217;-65
2022/03/19 05:54:13;;;;;;;28.77;20.67;;;;;;;-1.42;46.48;96895.22;4933871;29;20227;-65
2022/03/19 05:56:39;;;;;;;27.77;20.00;;;;;;;-1.37;46.27;96895.13;4929576;28;20312;-65
2022/03/19 05:59:05;;;;;;;26.63;18.73;;;;;;;-1.33;45.69;96897.63;4928252;28;20205;-65
2022/03/19 06:01:30;;;;;;;27.10;18.40;;;;;;;-1.28;45.77;96888.91;4930040;29;20244;-65
2022/03/19 06:03:57;;;;;;;26.60;17.17;;;;;;;-1.19;45.35;96888.72;4928634;29;20232;-65
2022/03/19 06:06:23;;;;;;;22.37;16.77;;;;;;;-1.19;45.40;96884.41;4922265;29;20224;-65
2022/03/19 06:08:49;;;;;;;24.80;16.30;;;;;;;-1.20;45.92;96887.88;4932168;29;20221;-64
2022/03/19 06:11:14;;;;;;;18.23;12.17;;;;;;;-1.04;44.95;96898.72;4929309;28;20291;-64
2022/03/19 06:13:40;;;;;;;13.20;7.80;;;;;;;-1.04;43.36;96893.56;4931979;29;20205;-64
2022/03/19 06:16:05;;;;;;;12.07;8.43;;;;;;;-1.12;43.34;96896.31;4932499;29;20244;-65
2022/03/19 06:18:31;;;;;;;10.73;8.17;;;;;;;-1.05;43.07;96886.66;4932343;29;20251;-66
2022/03/19 06:20:57;;;;;;;14.03;8.97;;;;;;;-1.00;43.06;96889.16;4929900;29;20241;-65
2022/03/19 06:23:23;;;;;;;13.30;9.13;;;;;;;-0.91;42.87;96889.81;4928319;28;20229;-65
2022/03/19 06:25:49;;;;;;;14.33;9.10;;;;;;;-0.89;43.06;96888.00;4942590;28;20264;-64
2022/03/19 06:28:15;;;;;;;12.67;8.67;;;;;;;-0.93;43.03;96895.88;4957500;28;20348;-65
2022/03/19 06:30:41;;;;;;;13.53;9.63;;;;;;;-0.86;43.27;96901.75;4926375;29;20359;-63
2022/03/19 06:33:07;;;;;;;11.63;8.30;;;;;;;-0.74;43.14;96889.38;4924031;28;20229;-64
2022/03/19 06:38:21;;;;;;;10.87;8.83;;;;;;;-0.61;42.34;96892.53;4924915;28;20264;-64
2022/03/19 06:40:46;;;;;;;19.03;10.33;;;;;;;-0.62;42.65;96895.13;4925111;29;20348;-63
2022/03/19 06:43:12;;;;;;;12.97;8.90;;;;;;;-0.56;42.65;96889.81;4921948;29;20248;-64
2022/03/19 06:45:38;;;;;;;15.97;9.57;;;;;;;-0.34;42.22;96900.47;4924322;28;20229;-63
2022/03/19 06:48:04;;;;;;;15.47;9.87;;;;;;;-0.46;42.50;96897.28;4933510;28;20229;-63
2022/03/19 06:50:30;;;;;;;15.40;10.10;;;;;;;-0.41;42.60;96901.50;4908050;29;20232;-65
2022/03/19 06:52:55;;;;;;;14.13;10.13;;;;;;;-0.33;41.92;96895.25;4923649;29;20234;-63
2022/03/19 06:55:21;;;;;;;14.50;9.20;;;;;;;-0.21;41.02;96891.50;4954499;28;20210;-64
2022/03/19 06:57:47;;;;;;;11.80;9.47;;;;;;;-0.22;41.25;96884.63;4923696;29;20239;-63
2022/03/19 07:00:13;;;;;;;22.27;10.27;;;;;;;-0.10;40.91;96889.47;4924436;28;20280;-65
2022/03/19 07:02:53;;;;;;;15.60;9.50;;;;;;;-0.03;40.60;96872.91;4927461;28;20240;-65
2022/03/19 07:05:28;;;;;;;15.27;9.70;;;;;;;0.07;40.37;96878.66;4925785;29;20256;-65
2022/03/19 07:07:56;;;;;;;18.23;10.60;;;;;;;0.18;40.08;96866.28;4924736;28;20272;-66
2022/03/19 07:10:22;;;;;;;11.57;8.67;;;;;;;0.14;39.23;96872.44;4923919;29;20309;-66
2022/03/19 07:12:52;;;;;;;12.60;9.37;;;;;;;0.18;39.13;96868.88;4923337;28;20233;-65
2022/03/19 07:15:21;;;;;;;13.37;9.67;;;;;;;0.22;39.12;96869.66;4922557;29;20240;-66
2022/03/19 07:17:50;;;;;;;15.77;9.43;;;;;;;0.34;39.45;96866.69;4922552;28;20238;-66
2022/03/19 07:20:15;;;;;;;12.60;8.93;;;;;;;0.64;38.40;96864.97;4933512;28;20233;-65
2022/03/19 07:22:51;;;;;;;12.77;8.77;;;;;;;0.51;38.00;96867.94;4928379;29;20228;-66
2022/03/19 07:25:18;;;;;;;11.23;8.67;;;;;;;0.59;37.76;96866.00;4924911;29;20229;-66
2022/03/19 07:27:44;;;;;;;12.97;8.43;;;;;;;0.68;38.06;96864.88;4916080;29;20245;-66
2022/03/19 07:30:11;;;;;;;16.30;8.97;;;;;;;0.69;37.97;96866.56;4923092;29;20259;-66
2022/03/19 07:32:37;;;;;;;12.37;9.00;;;;;;;0.74;37.96;96872.44;4916817;29;20261;-66
2022/03/19 07:35:03;;;;;;;10.63;8.50;;;;;;;0.82;38.03;96866.13;4955538;28;20247;-67
2022/03/19 07:37:29;;;;;;;10.83;8.00;;;;;;;1.00;37.56;96877.66;4923347;29;20304;-67
2022/03/19 07:39:58;;;;;;;12.03;8.30;;;;;;;1.05;36.28;96870.59;4959400;28;20237;-66
2022/03/19 07:42:24;;;;;;;12.93;8.43;;;;;;;1.21;36.43;96870.13;4937436;28;20237;-67
2022/03/19 07:44:49;;;;;;;10.87;8.13;;;;;;;1.43;36.53;96872.84;4925555;28;20312;-66
2022/03/19 07:47:15;;;;;;;25.13;20.23;;;;;;;1.47;34.90;96874.44;4927218;29;20249;-67
2022/03/19 07:49:41;;;;;;;11.00;9.67;;;;;;;1.61;34.76;96861.88;4927974;29;20209;-69
2022/03/19 07:52:10;;;;;;;16.20;9.80;;;;;;;1.72;35.19;96869.28;4957916;28;20316;-67
2022/03/19 07:54:36;;;;;;;14.70;9.90;;;;;;;1.72;35.52;96864.94;4929714;29;20253;-67
2022/03/19 07:57:06;;;;;;;13.50;10.60;;;;;;;2.03;35.53;96879.44;4925864;29;20276;-69
2022/03/19 07:59:32;;;;;;;14.87;10.50;;;;;;;2.06;35.13;96874.16;4927522;28;20241;-69
2022/03/19 08:01:58;;;;;;;16.00;11.47;;;;;;;2.19;35.42;96864.16;4923508;28;20221;-70
2022/03/19 08:04:24;;;;;;;17.13;12.30;;;;;;;2.08;35.56;96869.72;4926390;29;20213;-69
2022/03/19 08:06:54;;;;;;;18.73;13.00;;;;;;;2.10;35.49;96867.09;4926992;29;20228;-69
2022/03/19 08:09:20;;;;;;;20.07;14.30;;;;;;;2.22;36.02;96869.28;4926161;28;20232;-68
2022/03/19 08:11:49;;;;;;;19.97;15.23;;;;;;;2.31;36.12;96874.13;4930370;29;20295;-68
2022/03/19 08:14:15;;;;;;;25.97;15.13;;;;;;;2.40;35.84;96871.16;4931788;28;20225;-67
2022/03/19 08:16:41;;;;;;;16.50;12.03;;;;;;;2.54;33.86;96864.63;4929790;29;20224;-67
2022/03/19 08:19:09;;;;;;;14.07;10.77;;;;;;;2.57;32.41;96857.56;4929127;29;20240;-68
2022/03/19 08:21:34;;;;;;;15.10;11.70;;;;;;;2.45;32.86;96864.97;4929883;28;20237;-66
2022/03/19 08:24:00;;;;;;;15.93;11.13;;;;;;;2.43;32.14;96862.41;4930206;28;20780;-68
2022/03/19 08:26:25;;;;;;;14.33;11.77;;;;;;;2.46;32.04;96867.53;4932767;29;20237;-66
2022/03/19 08:28:51;;;;;;;13.63;11.27;;;;;;;2.53;31.60;96860.34;4943612;28;20256;-64
2022/03/19 08:31:17;;;;;;;13.60;9.73;;;;;;;2.64;31.31;96859.00;4953869;28;20286;-67
2022/03/19 08:33:42;;;;;;;10.93;8.93;;;;;;;2.57;30.88;96854.13;4947021;28;20319;-66
2022/03/19 08:36:07;;;;;;;11.07;9.37;;;;;;;2.61;30.89;96859.13;4967011;28;20254;-67
2022/03/19 08:41:17;;;;;;;10.30;8.57;;;;;;;2.55;30.88;96859.38;4944239;28;20271;-67
2022/03/19 08:43:44;;;;;;;12.53;8.90;;;;;;;2.81;30.21;96852.34;4943132;28;20300;-67
2022/03/19 08:46:10;;;;;;;9.70;8.23;;;;;;;2.76;30.39;96852.53;4928415;28;20217;-66
2022/03/19 08:48:36;;;;;;;10.33;8.60;;;;;;;2.83;30.26;96856.59;4925759;28;20276;-66
2022/03/19 08:53:46;;;;;;;12.27;9.57;;;;;;;3.13;30.40;96858.00;4942579;28;20255;-66
2022/03/19 08:56:11;;;;;;;11.47;9.90;;;;;;;3.13;29.98;96852.81;4941982;28;20344;-65
2022/03/19 08:58:38;;;;;;;11.60;8.93;;;;;;;3.29;29.43;96853.91;4925373;29;20296;-66
2022/03/19 09:01:04;;;;;;;10.30;8.77;;;;;;;3.18;29.74;96843.94;4941763;28;20239;-66
2022/03/19 09:03:29;;;;;;;12.43;10.33;;;;;;;3.51;30.00;96841.72;4926806;29;20315;-66
2022/03/19 09:05:55;;;;;;;13.10;9.40;;;;;;;3.57;29.83;96842.38;4927180;29;20268;-66
2022/03/19 09:08:20;;;;;;;10.33;8.77;;;;;;;3.54;29.20;96838.13;4928555;29;20316;-67
2022/03/19 09:10:46;;;;;;;11.60;8.47;;;;;;;3.40;29.38;96840.47;4941019;29;20216;-66
2022/03/19 09:13:11;;;;;;;9.97;8.80;;;;;;;3.57;28.78;96834.56;4944231;29;20213;-67
2022/03/19 09:15:37;;;;;;;9.67;8.67;;;;;;;3.86;28.70;96828.97;4941181;28;20222;-66
2022/03/19 09:18:05;;;;;;;9.30;7.93;;;;;;;4.17;27.63;96828.47;4917796;29;20228;-67
2022/03/19 09:20:31;;;;;;;10.67;7.83;;;;;;;4.30;27.58;96838.31;4944014;28;20256;-66
2022/03/19 09:22:57;;;;;;;10.70;8.03;;;;;;;4.34;26.86;96832.91;4927634;28;20356;-67
2022/03/19 09:25:22;;;;;;;11.10;8.80;;;;;;;4.23;26.92;96831.72;4930230;29;20239;-67
2022/03/19 09:27:47;;;;;;;11.73;7.90;;;;;;;4.42;27.57;96833.41;4920498;29;20260;-67
2022/03/19 09:30:13;;;;;;;9.77;8.53;;;;;;;4.70;28.06;96826.94;4914886;29;20260;-67
2022/03/19 09:32:38;;;;;;;9.70;8.40;;;;;;;4.92;27.43;96828.53;4919584;29;20245;-70
2022/03/19 09:35:04;;;;;;;9.17;8.10;;;;;;;4.92;27.15;96828.53;4932836;29;20217;-71
2022/03/19 09:37:31;;;;;;;9.47;7.93;;;;;;;4.67;27.75;96828.84;4914596;29;20229;-69
2022/03/19 09:39:57;;;;;;;9.53;8.53;;;;;;;4.86;27.83;96830.53;4911554;29;20260;-67
2022/03/19 09:42:22;;;;;;;9.20;8.23;;;;;;;4.58;27.41;96822.31;4912639;29;20321;-69
2022/03/19 09:44:47;;;;;;;9.77;8.50;;;;;;;4.72;27.60;96830.31;4926259;29;20231;-68
2022/03/19 09:47:14;;;;;;;9.40;8.37;;;;;;;4.78;27.88;96822.19;4903491;29;20256;-68
2022/03/19 09:49:39;;;;;;;10.67;9.43;;;;;;;4.34;28.32;96813.84;4913815;29;20239;-68
2022/03/19 09:52:05;;;;;;;10.40;8.83;;;;;;;4.79;28.54;96816.09;4917039;29;20225;-67
2022/03/19 09:54:31;;;;;;;10.17;8.53;;;;;;;4.94;28.17;96817.09;4912726;29;20229;-67
2022/03/19 09:56:57;;;;;;;13.43;9.10;;;;;;;5.23;27.68;96813.09;4913767;29;20229;-67
2022/03/19 09:59:23;;;;;;;9.63;8.70;;;;;;;5.66;26.97;96817.94;4911811;29;20250;-67
2022/03/19 10:01:49;;;;;;;12.73;9.53;;;;;;;5.37;27.43;96822.00;4913606;29;20246;-67
2022/03/19 10:04:18;;;;;;;9.70;8.43;;;;;;;5.30;27.75;96830.16;4920366;29;20262;-67
2022/03/19 10:09:41;;;;;;;11.37;9.23;;;;;;;5.11;27.88;96821.53;4926503;29;20240;-66
2022/03/19 10:12:16;;;;;;;9.23;8.27;;;;;;;4.92;27.68;96821.56;4917996;29;20285;-67
2022/03/19 10:14:46;;;;;;;11.37;8.83;;;;;;;4.71;28.10;96818.22;4923490;29;20228;-68
2022/03/19 10:17:31;;;;;;;10.43;8.63;;;;;;;4.66;27.80;96814.97;4926839;29;20261;-68
2022/03/19 10:20:07;;;;;;;13.53;8.40;;;;;;;4.73;28.18;96820.72;4908765;29;20214;-68
2022/03/19 10:22:32;;;;;;;9.30;8.40;;;;;;;4.76;27.23;96816.25;4917110;29;20259;-67
2022/03/19 10:25:05;;;;;;;9.33;7.70;;;;;;;4.99;26.75;96816.91;4913530;29;20230;-69
2022/03/19 10:27:35;;;;;;;9.63;8.60;;;;;;;4.73;27.01;96815.50;4934601;28;20248;-68
2022/03/19 10:30:07;;;;;;;10.90;9.17;;;;;;;4.61;27.52;96809.13;4932492;29;20367;-68
2022/03/19 10:32:34;;;;;;;12.00;7.80;;;;;;;5.06;27.01;96813.91;4953465;28;20236;-66
2022/03/19 10:35:01;;;;;;;8.33;7.47;;;;;;;5.87;25.93;96809.03;4934098;28;20258;-70
2022/03/19 10:37:39;;;;;;;10.27;8.63;;;;;;;6.28;25.30;96798.22;4964262;28;20274;-69
2022/03/19 10:40:07;;;;;;;12.27;8.03;;;;;;;5.99;25.70;96804.97;4948104;28;20225;-67
2022/03/19 10:42:41;;;;;;;8.70;6.97;;;;;;;5.98;25.35;96795.44;4914898;28;20241;-68
2022/03/19 10:45:11;;;;;;;8.80;7.33;;;;;;;5.85;25.82;96803.03;4950148;28;20241;-69
2022/03/19 10:47:45;;;;;;;11.50;7.23;;;;;;;5.67;25.53;96791.78;4931962;28;20225;-70
2022/03/19 10:50:18;;;;;;;9.43;7.00;;;;;;;5.85;25.59;96802.19;4954448;28;20256;-66
2022/03/19 10:52:46;;;;;;;9.60;6.80;;;;;;;5.64;25.90;96797.16;4929679;28;20213;-66
2022/03/19 10:55:12;;;;;;;8.10;6.83;;;;;;;5.54;25.94;96808.97;4946278;28;20228;-65
2022/03/19 10:57:38;;;;;;;10.23;7.20;;;;;;;5.74;26.09;96802.75;4968703;28;20229;-62
2022/03/19 11:00:04;;;;;;;10.47;6.97;;;;;;;5.84;25.83;96796.13;4934988;29;20225;-66
2022/03/19 11:02:31;;;;;;;7.93;6.90;;;;;;;5.79;25.92;96798.13;4932103;28;20243;-68
2022/03/19 11:05:00;;;;;;;8.93;7.03;;;;;;;5.78;25.50;96798.22;4936849;28;20216;-69
2022/03/19 11:07:30;;;;;;;9.43;7.33;;;;;;;6.02;25.87;96790.91;4934706;28;20209;-71
2022/03/19 11:09:57;;;;;;;7.50;6.70;;;;;;;6.12;25.60;96785.13;4954142;28;20224;-68
2022/03/19 11:12:28;;;;;;;7.57;6.77;;;;;;;6.64;25.05;96791.94;4934364;28;20231;-69
2022/03/19 11:14:56;;;;;;;8.23;6.73;;;;;;;6.46;24.91;96788.53;4950972;28;20239;-68
2022/03/19 11:17:32;;;;;;;8.67;6.83;;;;;;;6.74;24.53;96789.66;4945190;28;20228;-69
2022/03/19 11:20:07;;;;;;;8.97;6.97;;;;;;;6.96;24.41;96794.53;4950637;28;20208;-72
2022/03/19 11:22:41;;;;;;;6.80;6.07;;;;;;;7.03;23.34;96788.88;4932556;28;20219;-70
2022/03/19 11:25:32;;;;;;;7.00;6.03;;;;;;;7.09;23.43;96774.59;4935403;28;20299;-68
2022/03/19 11:28:06;;;;;;;8.63;6.83;;;;;;;7.26;23.62;96784.09;4934778;28;20263;-69
2022/03/19 11:30:36;;;;;;;6.83;6.17;;;;;;;6.89;24.46;96778.31;4946731;28;20236;-69
2022/03/19 11:33:10;;;;;;;7.80;6.77;;;;;;;7.14;24.19;96782.19;4928299;28;20232;-71
2022/03/19 11:35:39;;;;;;;8.67;6.40;;;;;;;6.79;23.87;96792.84;4961445;28;20259;-70
2022/03/19 11:38:13;;;;;;;7.37;6.17;;;;;;;6.69;24.44;96784.69;4941683;28;20272;-71
2022/03/19 11:40:47;;;;;;;9.33;6.90;;;;;;;7.03;24.14;96773.19;4932511;28;20212;-69
2022/03/19 11:43:18;;;;;;;8.33;7.17;;;;;;;7.43;24.01;96770.03;4946628;28;20216;-70